Terminal Aerodrome Forecast
Issued by NWS

Home | Current Version | Previous Version | Graphics & Text | Print | Product List | Glossary On
Versions: 1 2 3 4 5 6 7 8 9 10 11 12 13 14 15 16 17 18 19 20 21 22 23 24 25
000
FTUS43 KLOT 291239 AAA
TAFGYY
TAF AMD
KGYY 291239Z 2913/3012 04015G25KT 6SM -SHRA SCT020 BKN035
      TEMPO 2913/2915 3SM -SHRA OVC015
     FM291500 03020G30KT P6SM VCSH BKN020
      TEMPO 2921/3001 6SM SHRA BKN015
     FM300100 03015G25KT 6SM BR VCSH BKN010
     FM300500 02012G18KT 4SM BR VCSH BKN007=

USA.gov is the U.S. government's official web portal to all federal, state and local government web resources and services.